createdAt,value
2022-09-26T00:01:44.677Z,100.00
2022-09-26T00:04:25.255Z,100.00
2022-09-26T00:06:55.453Z,100.00
2022-09-26T00:09:24.088Z,100.00
2022-09-26T00:11:51.796Z,100.00
2022-09-26T00:14:21.709Z,100.00
2022-09-26T00:16:49.267Z,100.00
2022-09-26T00:19:17.021Z,100.00
2022-09-26T00:21:43.854Z,100.00
2022-09-26T00:24:10.827Z,100.00
2022-09-26T00:26:38.477Z,100.00
2022-09-26T00:29:10.020Z,100.00
2022-09-26T00:31:40.034Z,100.00
2022-09-26T00:34:07.444Z,100.00
2022-09-26T00:36:38.514Z,100.00
2022-09-26T00:39:07.555Z,100.00
2022-09-26T00:41:34.979Z,100.00
2022-09-26T00:44:01.980Z,100.00
2022-09-26T00:46:34.916Z,100.00
2022-09-26T00:49:29.357Z,100.00
2022-09-26T00:52:06.214Z,100.00
2022-09-26T00:54:36.030Z,100.00
2022-09-26T00:57:08.616Z,100.00
2022-09-26T00:59:39.183Z,100.00
2022-09-26T01:02:06.267Z,100.00
2022-09-26T01:04:36.226Z,100.00
2022-09-26T01:07:08.409Z,100.00
2022-09-26T01:09:35.509Z,100.00
2022-09-26T01:12:04.741Z,100.00
2022-09-26T01:14:33.032Z,100.00
2022-09-26T01:18:36.081Z,100.00
2022-09-26T01:21:21.113Z,100.00
2022-09-26T01:23:56.693Z,100.00
2022-09-26T01:26:35.622Z,100.00
2022-09-26T01:29:39.780Z,100.00
2022-09-26T01:32:40.034Z,100.00
2022-09-26T01:35:09.355Z,100.00
2022-09-26T01:38:00.145Z,100.00
2022-09-26T01:40:35.791Z,100.00
2022-09-26T01:43:28.447Z,100.00
2022-09-26T01:46:06.289Z,100.00
2022-09-26T01:48:43.066Z,100.00
2022-09-26T01:51:28.846Z,100.00
2022-09-26T01:54:18.764Z,100.00
2022-09-26T01:56:48.857Z,100.00
2022-09-26T01:59:24.101Z,100.00
2022-09-26T02:01:56.508Z,100.00
2022-09-26T02:04:29.452Z,100.00
2022-09-26T02:07:02.411Z,100.00
2022-09-26T02:09:40.598Z,100.00
2022-09-26T02:12:12.020Z,100.00
2022-09-26T02:14:41.932Z,100.00
2022-09-26T02:17:12.808Z,100.00
2022-09-26T02:19:57.818Z,100.00
2022-09-26T02:22:27.403Z,100.00
2022-09-26T02:24:54.019Z,100.00
2022-09-26T02:27:21.405Z,100.00
2022-09-26T02:29:48.164Z,100.00
2022-09-26T02:32:19.185Z,100.00
2022-09-26T02:34:48.110Z,100.00
2022-09-26T02:37:21.046Z,100.00
2022-09-26T02:39:49.951Z,100.00
2022-09-26T02:42:34.201Z,100.00
2022-09-26T02:45:06.976Z,100.00
2022-09-26T02:48:08.264Z,100.00
2022-09-26T02:50:59.108Z,100.00
2022-09-26T02:53:59.379Z,100.00
2022-09-26T02:56:47.650Z,100.00
2022-09-26T02:59:35.385Z,100.00
2022-09-26T03:02:14.478Z,100.00
2022-09-26T03:04:48.910Z,100.00
2022-09-26T03:07:24.310Z,100.00
2022-09-26T03:09:52.639Z,100.00
2022-09-26T03:12:20.750Z,100.00
2022-09-26T03:14:49.408Z,100.00
2022-09-26T03:19:46.606Z,100.00
2022-09-26T03:22:15.459Z,100.00
2022-09-26T03:24:43.328Z,100.00
2022-09-26T03:27:12.683Z,100.00
2022-09-26T03:29:39.379Z,100.00
2022-09-26T03:32:06.574Z,100.00
2022-09-26T03:34:33.303Z,100.00
2022-09-26T03:36:59.831Z,100.00
2022-09-26T03:39:26.368Z,100.00
2022-09-26T03:41:53.775Z,100.00
2022-09-26T03:44:21.958Z,100.00
2022-09-26T03:46:48.762Z,100.00
2022-09-26T03:49:15.654Z,100.00
2022-09-26T03:51:44.340Z,100.00
2022-09-26T03:54:14.190Z,100.00
2022-09-26T03:56:41.325Z,100.00
2022-09-26T03:59:09.257Z,100.00
2022-09-26T04:01:35.855Z,100.00
2022-09-26T04:04:02.659Z,100.00
2022-09-26T04:06:29.217Z,100.00
2022-09-26T04:08:56.452Z,100.00
2022-09-26T04:11:24.886Z,100.00
2022-09-26T04:13:53.954Z,100.00
2022-09-26T04:16:23.864Z,100.00
2022-09-26T04:18:55.909Z,100.00
2022-09-26T04:21:22.562Z,100.00
2022-09-26T04:23:50.393Z,100.00
2022-09-26T04:26:23.316Z,100.00
2022-09-26T04:28:55.221Z,100.00
2022-09-26T04:31:23.427Z,100.00
2022-09-26T04:33:51.334Z,100.00
2022-09-26T04:36:17.953Z,100.00
2022-09-26T04:38:44.751Z,100.00
2022-09-26T04:41:12.464Z,100.00
2022-09-26T04:43:39.042Z,100.00
2022-09-26T04:46:32.046Z,100.00
2022-09-26T04:49:00.430Z,100.00
2022-09-26T04:51:28.507Z,100.00
2022-09-26T04:53:55.831Z,100.00
2022-09-26T04:56:24.353Z,100.00
2022-09-26T04:58:51.599Z,100.00
2022-09-26T05:01:20.324Z,100.00
2022-09-26T05:03:47.239Z,100.00
2022-09-26T05:06:15.326Z,100.00
2022-09-26T05:08:44.759Z,100.00
2022-09-26T05:11:11.438Z,100.00
2022-09-26T05:13:39.025Z,100.00
2022-09-26T05:16:08.999Z,100.00
2022-09-26T05:20:31.481Z,100.00
2022-09-26T05:22:58.961Z,100.00
2022-09-26T05:25:45.740Z,100.00
2022-09-26T05:28:12.532Z,100.00
2022-09-26T05:30:39.571Z,100.00
2022-09-26T05:33:06.121Z,100.00
2022-09-26T05:35:36.084Z,100.00
2022-09-26T05:38:04.540Z,100.00
2022-09-26T05:40:50.378Z,100.00
2022-09-26T05:43:17.071Z,100.00
2022-09-26T05:45:44.391Z,100.00
2022-09-26T05:48:10.977Z,100.00
2022-09-26T05:50:40.476Z,100.00
2022-09-26T05:53:10.099Z,100.00
2022-09-26T05:55:39.600Z,100.00
2022-09-26T05:58:06.439Z,100.00
2022-09-26T06:00:34.307Z,100.00
2022-09-26T06:03:03.824Z,100.00
2022-09-26T06:05:33.807Z,100.00
2022-09-26T06:08:01.958Z,100.00
2022-09-26T06:10:30.848Z,100.00
2022-09-26T06:13:05.518Z,100.00
2022-09-26T06:15:32.094Z,100.00
2022-09-26T06:18:06.737Z,100.00
2022-09-26T06:20:34.250Z,100.00
2022-09-26T06:23:01.947Z,100.00
2022-09-26T06:25:29.511Z,100.00
2022-09-26T06:28:00.133Z,100.00
2022-09-26T06:30:27.274Z,100.00
2022-09-26T06:32:54.738Z,100.00
2022-09-26T06:35:21.835Z,100.00
2022-09-26T06:37:48.629Z,100.00
2022-09-26T06:40:15.672Z,100.00
2022-09-26T06:42:43.550Z,100.00
2022-09-26T06:45:10.964Z,100.00
2022-09-26T06:47:37.582Z,100.00
2022-09-26T06:50:04.995Z,100.00
2022-09-26T06:52:35.119Z,100.00
2022-09-26T06:55:03.836Z,100.00
2022-09-26T06:57:37.720Z,100.00
2022-09-26T07:00:04.865Z,100.00
2022-09-26T07:02:31.478Z,100.00
2022-09-26T07:04:58.229Z,100.00
2022-09-26T07:07:25.627Z,100.00
2022-09-26T07:09:52.264Z,100.00
2022-09-26T07:12:19.076Z,100.00
2022-09-26T07:14:48.886Z,100.00
2022-09-26T07:17:19.543Z,100.00
2022-09-26T07:21:42.877Z,100.00
2022-09-26T07:24:14.310Z,100.00
2022-09-26T07:26:42.278Z,100.00
2022-09-26T07:29:10.034Z,100.00
2022-09-26T07:31:37.356Z,100.00
2022-09-26T07:34:04.350Z,100.00
2022-09-26T07:36:31.784Z,100.00
2022-09-26T07:38:58.702Z,100.00
2022-09-26T07:41:25.372Z,100.00
2022-09-26T07:46:57.754Z,100.00
2022-09-26T07:49:43.124Z,100.00
2022-09-26T07:52:10.120Z,100.00
2022-09-26T07:54:40.918Z,100.00
2022-09-26T07:57:08.148Z,100.00
2022-09-26T07:59:37.286Z,100.00
2022-09-26T08:02:05.106Z,100.00
2022-09-26T08:04:32.028Z,100.00
2022-09-26T08:06:59.626Z,100.00
2022-09-26T08:09:26.670Z,100.00
2022-09-26T08:11:55.622Z,100.00
2022-09-26T08:14:22.387Z,100.00
2022-09-26T08:16:49.214Z,100.00
2022-09-26T08:19:17.635Z,100.00
2022-09-26T08:21:44.383Z,100.00
2022-09-26T08:24:11.071Z,99.88
2022-09-26T08:26:43.910Z,99.10
2022-09-26T08:29:12.726Z,98.25
2022-09-26T08:31:40.165Z,97.43
2022-09-26T08:34:08.647Z,94.67
2022-09-26T08:36:38.348Z,95.31
2022-09-26T08:39:05.539Z,94.96
2022-09-26T08:41:53.315Z,94.60
2022-09-26T08:44:53.004Z,95.01
2022-09-26T08:47:50.473Z,95.66
2022-09-26T08:50:28.542Z,95.67
2022-09-26T08:53:07.152Z,93.22
2022-09-26T08:55:40.886Z,93.35
2022-09-26T08:58:44.573Z,92.08
2022-09-26T09:01:25.150Z,92.24
2022-09-26T09:03:59.008Z,92.22
2022-09-26T09:06:28.266Z,91.86
2022-09-26T09:08:56.690Z,90.77
2022-09-26T09:11:51.826Z,90.78
2022-09-26T09:14:41.018Z,89.68
2022-09-26T09:17:33.912Z,89.89
2022-09-26T09:23:20.515Z,89.23
2022-09-26T09:27:52.281Z,86.46
2022-09-26T09:29:10.405Z,84.44
2022-09-26T09:31:48.774Z,84.08
2022-09-26T09:34:53.013Z,83.43
2022-09-26T09:37:44.404Z,83.76
2022-09-26T09:40:48.866Z,82.50
2022-09-26T09:43:46.648Z,81.54
2022-09-26T09:46:23.988Z,78.44
2022-09-26T09:49:16.270Z,78.44
2022-09-26T09:52:11.360Z,78.02
2022-09-26T09:55:05.504Z,77.19
2022-09-26T09:57:43.500Z,75.53
2022-09-26T10:00:38.665Z,75.70
2022-09-26T10:04:01.658Z,76.32
2022-09-26T10:06:47.354Z,75.69
2022-09-26T10:19:49.927Z,78.14
2022-09-26T10:22:37.648Z,78.48
2022-09-26T10:25:49.603Z,77.21
2022-09-26T10:29:17.410Z,77.57
2022-09-26T10:32:21.776Z,78.57
2022-09-26T10:35:08.187Z,77.76
2022-09-26T10:37:39.153Z,77.02
2022-09-26T10:43:40.572Z,76.57
2022-09-26T10:46:13.436Z,76.50
2022-09-26T10:48:52.399Z,75.63
2022-09-26T10:51:51.045Z,75.83
2022-09-26T10:54:37.702Z,75.86
2022-09-26T10:57:22.237Z,75.54
2022-09-26T11:00:01.451Z,75.23
2022-09-26T11:02:34.913Z,75.37
2022-09-26T11:05:24.660Z,74.36
2022-09-26T11:08:18.029Z,74.14
2022-09-26T11:11:03.889Z,72.93
2022-09-26T11:13:53.894Z,71.38
2022-09-26T11:16:51.200Z,72.15
2022-09-26T11:23:51.070Z,72.02
2022-09-26T11:26:28.074Z,72.21
2022-09-26T11:29:36.914Z,75.21
2022-09-26T11:32:06.471Z,72.55
2022-09-26T11:34:38.256Z,69.83
2022-09-26T11:37:10.995Z,69.62
2022-09-26T11:39:52.327Z,69.93
2022-09-26T11:43:38.677Z,69.12
2022-09-26T11:46:53.451Z,69.73
2022-09-26T11:50:03.240Z,69.43
2022-09-26T11:52:56.666Z,69.15
2022-09-26T11:55:40.000Z,67.97
2022-09-26T11:58:28.202Z,66.85
2022-09-26T12:01:08.300Z,66.14
2022-09-26T12:04:00.730Z,66.39
2022-09-26T12:06:56.344Z,67.08
2022-09-26T12:09:42.037Z,68.88
2022-09-26T12:12:28.607Z,68.93
2022-09-26T12:15:02.552Z,69.58
2022-09-26T12:17:55.695Z,69.76
2022-09-26T12:21:04.035Z,69.31
2022-09-26T12:23:54.104Z,66.59
2022-09-26T12:26:45.121Z,67.11
2022-09-26T12:29:24.559Z,67.38
2022-09-26T12:31:54.992Z,67.36
2022-09-26T12:34:57.968Z,67.53
2022-09-26T12:37:37.601Z,66.42
2022-09-26T12:40:12.776Z,67.08
2022-09-26T12:42:51.570Z,67.21
2022-09-26T12:46:00.680Z,67.77
2022-09-26T12:49:30.638Z,68.89
2022-09-26T12:52:16.458Z,70.44
2022-09-26T12:55:29.888Z,71.06
2022-09-26T12:58:19.562Z,70.46
2022-09-26T13:01:02.270Z,71.03
2022-09-26T13:03:50.503Z,72.57
2022-09-26T13:06:28.046Z,72.98
2022-09-26T13:09:14.155Z,73.63
2022-09-26T13:12:26.361Z,73.13
2022-09-26T13:15:16.116Z,71.93
2022-09-26T13:18:33.119Z,70.46
2022-09-26T13:25:07.881Z,74.30
2022-09-26T13:28:07.381Z,73.08
2022-09-26T13:30:39.637Z,74.44
2022-09-26T13:33:25.295Z,73.65
2022-09-26T13:35:56.758Z,73.40
2022-09-26T13:38:46.038Z,75.04
2022-09-26T13:41:50.693Z,75.57
2022-09-26T13:44:23.928Z,75.74
2022-09-26T13:47:08.046Z,74.50
2022-09-26T13:50:01.885Z,74.27
2022-09-26T13:52:47.332Z,74.43
2022-09-26T13:55:20.677Z,72.65
2022-09-26T13:58:04.464Z,73.38
2022-09-26T14:00:38.011Z,73.06
2022-09-26T14:03:17.485Z,72.14
2022-09-26T14:05:44.619Z,71.66
2022-09-26T14:08:51.842Z,100.00
2022-09-26T14:11:30.832Z,100.00
2022-09-26T14:14:22.167Z,100.00
2022-09-26T14:16:51.280Z,100.00
2022-09-26T14:19:36.438Z,100.00
2022-09-26T14:22:26.393Z,100.00
2022-09-26T14:24:56.006Z,100.00
2022-09-26T14:27:41.777Z,100.00
2022-09-26T14:30:30.008Z,100.00
2022-09-26T14:33:03.629Z,100.00
2022-09-26T14:35:31.803Z,100.00
2022-09-26T14:38:02.159Z,100.00
2022-09-26T14:40:32.903Z,100.00
2022-09-26T14:43:17.441Z,100.00
2022-09-26T14:45:51.807Z,100.00
2022-09-26T14:48:38.903Z,100.00
2022-09-26T14:51:12.603Z,100.00
2022-09-26T14:53:50.850Z,100.00
2022-09-26T14:56:29.912Z,100.00
2022-09-26T14:59:27.600Z,100.00
2022-09-26T15:02:26.170Z,100.00
2022-09-26T15:05:18.303Z,100.00
2022-09-26T15:07:49.134Z,100.00
2022-09-26T15:10:34.572Z,100.00
2022-09-26T15:13:29.225Z,100.00
2022-09-26T15:16:14.961Z,100.00
2022-09-26T15:18:51.752Z,100.00
2022-09-26T15:21:36.716Z,100.00
2022-09-26T15:32:15.664Z,82.16
2022-09-26T15:34:59.418Z,82.37
2022-09-26T15:37:32.531Z,82.68
2022-09-26T15:40:18.286Z,83.90
2022-09-26T15:43:03.003Z,84.37
2022-09-26T15:45:50.422Z,85.41
2022-09-26T15:48:22.800Z,86.03
2022-09-26T15:51:01.877Z,87.02
2022-09-26T15:53:46.856Z,100.00
2022-09-26T15:56:18.893Z,100.00
2022-09-26T15:58:59.190Z,100.00
2022-09-26T16:01:29.740Z,100.00
2022-09-26T16:04:06.649Z,100.00
2022-09-26T16:06:52.813Z,100.00
2022-09-26T16:09:26.191Z,100.00
2022-09-26T16:11:53.397Z,100.00
2022-09-26T16:14:32.665Z,100.00
2022-09-26T16:17:24.801Z,100.00
2022-09-26T16:19:57.051Z,100.00
2022-09-26T16:22:49.413Z,100.00
2022-09-26T16:25:51.267Z,100.00
2022-09-26T16:28:58.186Z,100.00
2022-09-26T16:34:36.604Z,100.00
2022-09-26T16:37:24.164Z,100.00
2022-09-26T16:49:37.177Z,100.00
2022-09-26T17:26:36.306Z,100.00
2022-09-26T17:29:03.751Z,100.00
2022-09-26T17:31:34.742Z,100.00
2022-09-26T17:34:02.284Z,100.00
2022-09-26T17:36:29.918Z,100.00
2022-09-26T17:38:59.739Z,100.00
2022-09-26T17:41:28.077Z,100.00
2022-09-26T17:44:01.269Z,100.00
2022-09-26T17:46:29.050Z,100.00
2022-09-26T17:48:56.471Z,100.00
2022-09-26T17:51:24.203Z,100.00
2022-09-26T17:53:52.888Z,100.00
2022-09-26T17:56:20.614Z,100.00
2022-09-26T17:58:48.613Z,100.00
2022-09-26T18:01:23.454Z,100.00
2022-09-26T18:03:54.435Z,100.00
2022-09-26T18:06:24.767Z,100.00
2022-09-26T18:08:52.607Z,100.00
2022-09-26T18:11:19.841Z,100.00
2022-09-26T18:13:55.754Z,100.00
2022-09-26T18:19:15.435Z,100.00
2022-09-26T18:21:42.137Z,100.00
2022-09-26T18:24:19.236Z,100.00
2022-09-26T18:26:47.626Z,100.00
2022-09-26T18:29:25.320Z,100.00
2022-09-26T18:31:53.458Z,100.00
2022-09-26T18:34:20.551Z,100.00
2022-09-26T18:36:50.202Z,100.00
2022-09-26T18:39:17.051Z,100.00
2022-09-26T18:41:45.320Z,100.00
2022-09-26T18:44:17.433Z,100.00
2022-09-26T18:46:47.294Z,100.00
2022-09-26T18:49:14.997Z,100.00
2022-09-26T18:51:41.746Z,100.00
2022-09-26T18:54:16.495Z,100.00
2022-09-26T18:57:02.473Z,100.00
2022-09-26T18:59:32.308Z,100.00
2022-09-26T19:02:02.289Z,100.00
2022-09-26T19:04:30.875Z,100.00
2022-09-26T19:07:01.192Z,100.00
2022-09-26T19:09:35.664Z,100.00
2022-09-26T19:12:03.725Z,100.00
2022-09-26T19:14:31.856Z,100.00
2022-09-26T19:16:58.710Z,100.00
2022-09-26T19:19:26.460Z,100.00
2022-09-26T19:21:56.999Z,100.00
2022-09-26T19:27:45.893Z,100.00
2022-09-26T19:30:12.482Z,100.00
2022-09-26T19:32:41.698Z,100.00
2022-09-26T19:35:21.994Z,100.00
2022-09-26T19:37:48.886Z,100.00
2022-09-26T19:40:18.798Z,100.00
2022-09-26T19:42:46.114Z,100.00
2022-09-26T19:45:14.021Z,100.00
2022-09-26T19:47:45.167Z,100.00
2022-09-26T19:50:23.503Z,100.00
2022-09-26T19:52:52.723Z,100.00
2022-09-26T19:55:26.681Z,100.00
2022-09-26T19:57:54.764Z,100.00
2022-09-26T20:00:21.646Z,100.00
2022-09-26T20:02:52.079Z,100.00
2022-09-26T20:05:18.953Z,100.00
2022-09-26T20:07:46.392Z,100.00
2022-09-26T20:10:19.331Z,100.00
2022-09-26T20:12:46.989Z,100.00
2022-09-26T20:15:15.059Z,100.00
2022-09-26T20:17:44.742Z,100.00
2022-09-26T20:20:23.347Z,100.00
2022-09-26T20:22:51.624Z,100.00
2022-09-26T20:25:31.005Z,100.00
2022-09-26T20:27:58.653Z,100.00
2022-09-26T20:30:45.302Z,100.00
2022-09-26T20:33:13.279Z,100.00
2022-09-26T20:35:44.747Z,100.00
2022-09-26T20:38:19.638Z,100.00
2022-09-26T20:40:46.757Z,100.00
2022-09-26T20:43:21.000Z,100.00
2022-09-26T20:45:47.849Z,100.00
2022-09-26T20:48:21.174Z,100.00
2022-09-26T20:50:49.495Z,100.00
2022-09-26T20:53:20.750Z,100.00
2022-09-26T20:55:48.192Z,100.00
2022-09-26T20:58:15.162Z,100.00
2022-09-26T21:00:43.235Z,100.00
2022-09-26T21:03:15.873Z,100.00
2022-09-26T21:05:43.185Z,100.00
2022-09-26T21:08:17.412Z,100.00
2022-09-26T21:10:44.041Z,100.00
2022-09-26T21:13:10.631Z,100.00
2022-09-26T21:15:37.228Z,100.00
2022-09-26T21:18:03.932Z,100.00
2022-09-26T21:20:33.688Z,100.00
2022-09-26T21:23:02.051Z,100.00
2022-09-26T21:28:40.056Z,100.00
2022-09-26T21:31:07.224Z,100.00
2022-09-26T21:33:35.782Z,100.00
2022-09-26T21:36:02.477Z,100.00
2022-09-26T21:38:29.983Z,100.00
2022-09-26T21:41:00.338Z,100.00
2022-09-26T21:43:31.885Z,100.00
2022-09-26T21:45:58.589Z,100.00
2022-09-26T21:48:25.282Z,100.00
2022-09-26T21:50:58.155Z,100.00
2022-09-26T21:53:37.033Z,100.00
2022-09-26T21:56:12.737Z,100.00
2022-09-26T21:58:41.347Z,100.00
2022-09-26T22:01:09.211Z,100.00
2022-09-26T22:03:36.095Z,100.00
2022-09-26T22:06:07.211Z,100.00
2022-09-26T22:08:34.252Z,100.00
2022-09-26T22:11:02.666Z,100.00
2022-09-26T22:13:30.234Z,100.00
2022-09-26T22:16:07.338Z,100.00
2022-09-26T22:18:35.232Z,100.00
2022-09-26T22:21:04.533Z,100.00
2022-09-26T22:23:32.615Z,100.00
2022-09-26T22:25:59.681Z,100.00
2022-09-26T22:28:27.011Z,100.00
2022-09-26T22:30:54.857Z,100.00
2022-09-26T22:33:22.784Z,100.00
2022-09-26T22:35:50.666Z,100.00
2022-09-26T22:38:18.430Z,100.00
2022-09-26T22:40:46.370Z,100.00
2022-09-26T22:43:12.944Z,100.00
2022-09-26T22:45:39.528Z,100.00
2022-09-26T22:48:06.051Z,100.00
2022-09-26T22:50:32.841Z,100.00
2022-09-26T22:52:59.408Z,100.00
2022-09-26T22:55:26.093Z,100.00
2022-09-26T22:57:52.714Z,100.00
2022-09-26T23:00:19.328Z,100.00
2022-09-26T23:02:45.897Z,100.00
2022-09-26T23:05:12.495Z,100.00
2022-09-26T23:07:39.037Z,100.00
2022-09-26T23:10:05.915Z,100.00
2022-09-26T23:12:32.591Z,100.00
2022-09-26T23:14:59.593Z,100.00
2022-09-26T23:17:26.135Z,100.00
2022-09-26T23:19:52.785Z,100.00
2022-09-26T23:22:19.398Z,100.00
2022-09-26T23:24:46.035Z,100.00
2022-09-26T23:29:37.644Z,100.00
2022-09-26T23:32:04.180Z,100.00
2022-09-26T23:34:30.724Z,100.00
2022-09-26T23:36:57.310Z,100.00
2022-09-26T23:39:24.094Z,100.00
2022-09-26T23:41:50.633Z,100.00
2022-09-26T23:44:17.133Z,100.00
2022-09-26T23:46:43.833Z,100.00
2022-09-26T23:49:10.552Z,100.00
2022-09-26T23:51:37.106Z,100.00
2022-09-26T23:54:03.842Z,100.00
2022-09-26T23:56:30.439Z,100.00
2022-09-26T23:58:57.500Z,100.00
